Time;durP1;ratioP1;P1;durP2;ratioP2;P2;SDS_P1;SDS_P2;PMS_P1;PMS_P2;Temp;Humidity;BMP_temperature;BMP_pressure;BME280_temperature;BME280_humidity;BME280_pressure;Samples;Min_cycle;Max_cycle;Signal;HPM_P1;HPM_P2
2023/01/23 00:02:17;;;;;;;47.43;18.93;;;;;;;;;;5047861;28;20021;-70
2023/01/23 00:04:43;;;;;;;46.15;18.52;;;;;;;;;;5050800;28;20291;-69
2023/01/23 00:07:08;;;;;;;38.47;17.95;;;;;;;;;;5046037;28;20025;-69
2023/01/23 00:09:33;;;;;;;37.05;17.15;;;;;;;;;;5047477;28;20021;-69
2023/01/23 00:11:58;;;;;;;48.73;17.87;;;;;;;;;;5045297;28;20040;-69
2023/01/23 00:14:23;;;;;;;41.70;18.38;;;;;;;;;;5049093;28;20763;-69
2023/01/23 00:16:49;;;;;;;39.17;18.23;;;;;;;;;;5045483;28;20332;-69
2023/01/23 00:19:14;;;;;;;42.65;17.20;;;;;;;;;;5047538;28;20267;-69
2023/01/23 00:21:39;;;;;;;44.00;18.47;;;;;;;;;;5038909;28;20029;-69
2023/01/23 00:24:04;;;;;;;42.47;17.57;;;;;;;;;;5043322;28;20278;-69
2023/01/23 00:26:33;;;;;;;39.42;17.08;;;;;;;;;;5048008;28;20247;-68
2023/01/23 00:28:58;;;;;;;42.88;19.20;;;;;;;;;;5046865;28;20029;-68
2023/01/23 00:31:25;;;;;;;47.08;18.13;;;;;;;;;;5048406;28;20027;-68
2023/01/23 00:33:57;;;;;;;41.25;17.40;;;;;;;;;;5046335;28;20402;-68
2023/01/23 00:36:23;;;;;;;40.28;17.33;;;;;;;;;;5046019;28;20033;-68
2023/01/23 00:38:48;;;;;;;52.00;18.52;;;;;;;;;;5047588;28;20029;-68
2023/01/23 00:41:13;;;;;;;42.58;18.30;;;;;;;;;;5047763;28;20448;-68
2023/01/23 00:43:39;;;;;;;43.50;18.13;;;;;;;;;;5046957;28;20068;-69
2023/01/23 00:46:04;;;;;;;41.63;18.10;;;;;;;;;;5045874;28;20021;-69
2023/01/23 00:48:29;;;;;;;51.78;18.77;;;;;;;;;;5044606;28;20101;-69
2023/01/23 00:50:54;;;;;;;39.63;17.17;;;;;;;;;;5046813;28;20476;-69
2023/01/23 00:53:20;;;;;;;45.70;18.40;;;;;;;;;;5049171;28;20074;-69
2023/01/23 00:55:45;;;;;;;41.63;18.85;;;;;;;;;;5044889;28;20116;-68
2023/01/23 00:58:10;;;;;;;39.25;17.63;;;;;;;;;;5046256;28;20494;-68
2023/01/23 01:00:36;;;;;;;44.17;19.15;;;;;;;;;;5046513;28;20389;-68
2023/01/23 01:03:01;;;;;;;43.08;19.20;;;;;;;;;;5048105;28;20021;-68
2023/01/23 01:05:27;;;;;;;47.00;18.38;;;;;;;;;;5042233;28;20045;-68
2023/01/23 01:07:52;;;;;;;42.97;18.20;;;;;;;;;;5045391;28;20043;-68
2023/01/23 01:10:17;;;;;;;46.27;17.57;;;;;;;;;;5046251;28;20017;-68
2023/01/23 01:12:42;;;;;;;43.15;17.55;;;;;;;;;;5047602;28;20263;-68
2023/01/23 01:15:08;;;;;;;42.05;18.38;;;;;;;;;;5046133;28;20040;-68
2023/01/23 01:17:33;;;;;;;37.85;17.50;;;;;;;;;;5047733;28;20033;-68
2023/01/23 01:19:58;;;;;;;37.90;16.33;;;;;;;;;;5047294;28;20039;-68
2023/01/23 01:22:23;;;;;;;41.88;17.67;;;;;;;;;;5045846;28;20389;-68
2023/01/23 01:24:49;;;;;;;37.90;16.63;;;;;;;;;;5046714;28;20029;-68
2023/01/23 01:27:14;;;;;;;40.70;18.42;;;;;;;;;;5027781;28;20013;-68
2023/01/23 01:29:39;;;;;;;47.55;18.77;;;;;;;;;;5048789;28;20470;-68
2023/01/23 01:32:04;;;;;;;41.43;18.90;;;;;;;;;;5044796;28;20163;-68
2023/01/23 01:34:30;;;;;;;44.13;18.52;;;;;;;;;;5048302;28;20767;-68
2023/01/23 01:36:55;;;;;;;40.38;17.85;;;;;;;;;;5044437;28;20405;-68
2023/01/23 01:39:20;;;;;;;47.65;17.63;;;;;;;;;;5049081;28;20028;-68
2023/01/23 01:41:46;;;;;;;39.88;17.80;;;;;;;;;;5049555;28;20257;-69
2023/01/23 01:44:18;;;;;;;37.90;17.63;;;;;;;;;;5052192;28;20029;-69
2023/01/23 01:46:47;;;;;;;41.90;17.55;;;;;;;;;;5049302;28;20024;-69
2023/01/23 01:49:13;;;;;;;42.08;17.98;;;;;;;;;;5050265;28;20421;-69
2023/01/23 01:51:43;;;;;;;49.53;18.83;;;;;;;;;;5048562;28;20051;-69
2023/01/23 01:54:17;;;;;;;44.33;18.73;;;;;;;;;;5048633;28;20267;-69
2023/01/23 01:56:46;;;;;;;44.13;18.98;;;;;;;;;;5049076;28;20417;-69
2023/01/23 01:59:11;;;;;;;40.08;17.58;;;;;;;;;;5051019;28;20052;-68
2023/01/23 02:01:38;;;;;;;43.35;18.48;;;;;;;;;;5050443;28;20674;-68
2023/01/23 02:04:03;;;;;;;44.38;18.83;;;;;;;;;;5049494;28;20028;-68
2023/01/23 02:06:28;;;;;;;47.78;18.85;;;;;;;;;;5049777;28;20096;-69
2023/01/23 02:08:57;;;;;;;40.33;18.13;;;;;;;;;;5047732;28;20377;-69
2023/01/23 02:11:22;;;;;;;48.97;20.02;;;;;;;;;;5049072;28;20057;-68
2023/01/23 02:13:47;;;;;;;37.40;17.85;;;;;;;;;;5052426;28;20381;-68
2023/01/23 02:16:38;;;;;;;41.85;17.92;;;;;;;;;;5051695;28;20025;-68
2023/01/23 02:19:07;;;;;;;38.83;17.23;;;;;;;;;;5048439;28;20506;-68
2023/01/23 02:21:33;;;;;;;49.38;18.63;;;;;;;;;;5048556;28;20236;-68
2023/01/23 02:24:10;;;;;;;42.95;18.85;;;;;;;;;;5049912;28;20106;-68
2023/01/23 02:26:39;;;;;;;42.30;17.92;;;;;;;;;;5050292;28;20017;-68
2023/01/23 02:29:05;;;;;;;37.83;17.80;;;;;;;;;;5049833;28;20009;-68
2023/01/23 02:31:30;;;;;;;38.75;16.65;;;;;;;;;;5031062;28;20351;-69
2023/01/23 02:33:56;;;;;;;38.90;17.10;;;;;;;;;;5049900;28;20497;-68
2023/01/23 02:36:23;;;;;;;45.80;18.48;;;;;;;;;;5050256;28;20484;-68
2023/01/23 02:38:53;;;;;;;42.17;17.58;;;;;;;;;;5050305;28;20566;-68
2023/01/23 02:41:21;;;;;;;41.00;18.15;;;;;;;;;;5048719;28;20040;-68
2023/01/23 02:43:47;;;;;;;42.33;17.45;;;;;;;;;;5050576;28;20411;-68
2023/01/23 02:46:14;;;;;;;44.90;18.83;;;;;;;;;;5049010;28;20094;-68
2023/01/23 02:48:39;;;;;;;40.63;17.88;;;;;;;;;;5047211;28;20068;-68
2023/01/23 02:51:05;;;;;;;44.83;17.58;;;;;;;;;;5031178;28;20485;-68
2023/01/23 02:53:30;;;;;;;38.03;16.65;;;;;;;;;;5051478;28;20099;-68
2023/01/23 02:55:57;;;;;;;41.58;17.77;;;;;;;;;;5049160;28;20156;-68
2023/01/23 03:01:06;;;;;;;41.92;17.58;;;;;;;;;;5048317;28;20083;-68
2023/01/23 03:03:31;;;;;;;40.08;17.42;;;;;;;;;;5050331;28;20515;-68
2023/01/23 03:05:58;;;;;;;41.00;16.98;;;;;;;;;;5048373;28;20066;-69
2023/01/23 03:08:32;;;;;;;40.10;18.05;;;;;;;;;;5049724;28;20020;-68
2023/01/23 03:10:57;;;;;;;41.15;18.00;;;;;;;;;;5051040;28;20017;-68
2023/01/23 03:13:22;;;;;;;42.00;18.23;;;;;;;;;;5049115;28;20024;-69
2023/01/23 03:15:49;;;;;;;40.03;17.30;;;;;;;;;;5049062;28;20025;-68
2023/01/23 03:18:15;;;;;;;44.05;17.92;;;;;;;;;;5047492;28;20322;-69
2023/01/23 03:20:40;;;;;;;40.92;17.90;;;;;;;;;;5047697;28;20485;-69
2023/01/23 03:23:05;;;;;;;43.13;17.55;;;;;;;;;;5048901;28;20069;-69
2023/01/23 03:25:31;;;;;;;42.22;17.05;;;;;;;;;;5049480;28;20017;-69
2023/01/23 03:27:56;;;;;;;40.22;17.83;;;;;;;;;;5046130;28;20024;-69
2023/01/23 03:30:21;;;;;;;42.33;18.35;;;;;;;;;;5048766;28;20048;-68
2023/01/23 03:32:46;;;;;;;43.30;18.65;;;;;;;;;;5049533;28;20103;-68
2023/01/23 03:35:15;;;;;;;40.58;17.95;;;;;;;;;;5046321;28;20478;-68
2023/01/23 03:37:41;;;;;;;40.05;17.02;;;;;;;;;;5046675;28;20075;-68
2023/01/23 03:42:50;;;;;;;41.53;17.13;;;;;;;;;;5048364;28;20032;-68
2023/01/23 03:45:15;;;;;;;41.58;18.00;;;;;;;;;;5048370;28;20025;-68
2023/01/23 03:47:41;;;;;;;38.90;17.08;;;;;;;;;;5050623;28;20087;-68
2023/01/23 03:50:06;;;;;;;44.22;17.80;;;;;;;;;;5046703;28;20508;-68
2023/01/23 03:52:32;;;;;;;43.53;19.42;;;;;;;;;;5049713;28;20060;-68
2023/01/23 03:54:57;;;;;;;44.00;17.90;;;;;;;;;;5047886;28;20068;-68
2023/01/23 03:57:22;;;;;;;40.23;18.77;;;;;;;;;;5049897;28;20025;-68
2023/01/23 03:59:47;;;;;;;44.55;18.00;;;;;;;;;;5045763;28;20263;-68
2023/01/23 04:02:12;;;;;;;44.50;17.67;;;;;;;;;;5047238;28;20039;-68
2023/01/23 04:04:38;;;;;;;47.33;18.50;;;;;;;;;;5049755;28;20016;-67
2023/01/23 04:07:03;;;;;;;39.72;18.05;;;;;;;;;;5049452;28;20017;-68
2023/01/23 04:09:28;;;;;;;47.28;18.27;;;;;;;;;;5047514;28;20021;-68
2023/01/23 04:11:55;;;;;;;44.28;18.67;;;;;;;;;;5050004;28;20489;-69
2023/01/23 04:14:21;;;;;;;38.30;16.73;;;;;;;;;;5048753;28;20095;-69
2023/01/23 04:16:47;;;;;;;46.28;18.77;;;;;;;;;;5047892;28;20017;-68
2023/01/23 04:19:12;;;;;;;43.90;17.42;;;;;;;;;;5046863;28;20398;-68
2023/01/23 04:21:37;;;;;;;44.70;18.08;;;;;;;;;;5050181;28;20033;-69
2023/01/23 04:24:02;;;;;;;43.17;19.08;;;;;;;;;;5049191;28;20089;-68
2023/01/23 04:26:28;;;;;;;47.10;17.25;;;;;;;;;;5048731;28;20013;-68
2023/01/23 04:28:53;;;;;;;43.35;18.13;;;;;;;;;;5045981;28;20020;-68
2023/01/23 04:31:18;;;;;;;41.53;16.80;;;;;;;;;;5048558;28;20075;-68
2023/01/23 04:33:43;;;;;;;43.88;18.38;;;;;;;;;;5049565;28;20322;-68
2023/01/23 04:36:09;;;;;;;41.67;16.88;;;;;;;;;;5048719;28;20103;-68
2023/01/23 04:38:34;;;;;;;41.28;17.70;;;;;;;;;;5047673;28;20493;-68
2023/01/23 04:40:59;;;;;;;35.30;16.63;;;;;;;;;;5048516;28;20104;-68
2023/01/23 04:43:24;;;;;;;40.45;16.77;;;;;;;;;;5047807;28;20040;-68
2023/01/23 04:45:51;;;;;;;45.22;18.58;;;;;;;;;;5044875;28;20013;-68
2023/01/23 04:48:16;;;;;;;44.55;18.60;;;;;;;;;;5045909;28;20020;-68
2023/01/23 04:50:41;;;;;;;43.25;17.45;;;;;;;;;;5046626;28;20017;-68
2023/01/23 04:53:06;;;;;;;42.85;17.83;;;;;;;;;;5048347;28;20040;-68
2023/01/23 04:55:32;;;;;;;38.85;17.13;;;;;;;;;;5048441;28;20033;-68
2023/01/23 04:57:58;;;;;;;41.22;17.25;;;;;;;;;;5046152;28;20389;-68
2023/01/23 05:00:23;;;;;;;41.28;17.50;;;;;;;;;;5029944;28;20029;-68
2023/01/23 05:02:48;;;;;;;43.13;18.17;;;;;;;;;;5047209;28;20072;-68
2023/01/23 05:05:16;;;;;;;41.25;18.13;;;;;;;;;;5047438;28;20059;-68
2023/01/23 05:07:41;;;;;;;37.80;16.65;;;;;;;;;;5046756;28;20013;-69
2023/01/23 05:10:07;;;;;;;41.97;17.13;;;;;;;;;;5047081;28;20040;-68
2023/01/23 05:12:33;;;;;;;46.80;17.67;;;;;;;;;;5045813;28;20033;-68
2023/01/23 05:14:58;;;;;;;51.85;18.73;;;;;;;;;;5045951;28;20113;-68
2023/01/23 05:17:23;;;;;;;43.85;17.92;;;;;;;;;;5047623;28;20032;-69
2023/01/23 05:19:48;;;;;;;37.40;15.95;;;;;;;;;;5046125;28;20557;-68
2023/01/23 05:22:14;;;;;;;40.00;16.33;;;;;;;;;;5046079;28;20021;-68
2023/01/23 05:24:39;;;;;;;41.47;17.25;;;;;;;;;;5045352;28;20749;-68
2023/01/23 05:27:04;;;;;;;40.05;17.20;;;;;;;;;;5048585;28;20025;-68
2023/01/23 05:29:29;;;;;;;37.08;16.58;;;;;;;;;;5045739;28;20025;-68
2023/01/23 05:31:54;;;;;;;43.13;18.25;;;;;;;;;;5046708;28;20013;-68
2023/01/23 05:34:20;;;;;;;42.17;17.63;;;;;;;;;;5047195;28;20063;-69
2023/01/23 05:36:45;;;;;;;39.03;16.80;;;;;;;;;;5046659;28;20259;-69
2023/01/23 05:39:10;;;;;;;41.38;18.17;;;;;;;;;;5043837;28;20013;-69
2023/01/23 05:41:35;;;;;;;36.50;16.55;;;;;;;;;;5047378;28;20017;-69
2023/01/23 05:44:00;;;;;;;36.97;15.98;;;;;;;;;;5047054;28;20028;-69
2023/01/23 05:46:25;;;;;;;41.57;15.00;;;;;;;;;;5047456;28;20366;-69
2023/01/23 05:48:51;;;;;;;37.38;16.75;;;;;;;;;;5044367;28;20270;-69
2023/01/23 05:51:17;;;;;;;38.92;15.48;;;;;;;;;;5047869;28;20081;-69
2023/01/23 05:53:42;;;;;;;41.17;17.88;;;;;;;;;;5045622;28;20021;-69
2023/01/23 05:56:07;;;;;;;40.30;16.43;;;;;;;;;;5026983;28;20072;-69
2023/01/23 05:58:33;;;;;;;39.85;16.85;;;;;;;;;;5045534;28;20839;-69
2023/01/23 06:00:58;;;;;;;35.80;15.97;;;;;;;;;;5042284;28;20486;-69
2023/01/23 06:03:23;;;;;;;39.65;15.98;;;;;;;;;;5046779;28;20310;-69
2023/01/23 06:05:48;;;;;;;36.70;15.68;;;;;;;;;;5044869;28;20036;-68
2023/01/23 06:08:13;;;;;;;37.43;17.13;;;;;;;;;;5045373;28;20056;-68
2023/01/23 06:10:39;;;;;;;37.90;16.35;;;;;;;;;;5040630;28;20756;-68
2023/01/23 06:13:04;;;;;;;38.38;16.00;;;;;;;;;;5046733;28;20292;-69
2023/01/23 06:15:29;;;;;;;42.67;17.67;;;;;;;;;;5044187;28;20036;-69
2023/01/23 06:17:54;;;;;;;36.60;15.77;;;;;;;;;;5044665;28;20013;-69
2023/01/23 06:20:19;;;;;;;38.75;15.25;;;;;;;;;;5043067;28;20409;-69
2023/01/23 06:22:45;;;;;;;33.40;15.60;;;;;;;;;;5037509;28;20036;-69
2023/01/23 06:25:10;;;;;;;37.90;16.08;;;;;;;;;;5025350;28;20028;-68
2023/01/23 06:27:35;;;;;;;34.72;14.85;;;;;;;;;;5049136;28;20464;-68
2023/01/23 06:30:00;;;;;;;33.33;14.10;;;;;;;;;;5044996;28;20021;-68
2023/01/23 06:32:25;;;;;;;32.10;14.38;;;;;;;;;;5049521;28;20048;-68
2023/01/23 06:34:51;;;;;;;38.53;14.83;;;;;;;;;;5047323;28;20029;-68
2023/01/23 06:37:16;;;;;;;38.40;15.40;;;;;;;;;;5042845;28;20747;-68
2023/01/23 06:39:41;;;;;;;35.20;15.05;;;;;;;;;;5046269;28;20024;-69
2023/01/23 06:42:09;;;;;;;33.53;14.85;;;;;;;;;;5040704;28;20033;-69
2023/01/23 06:44:34;;;;;;;36.75;15.10;;;;;;;;;;5044047;28;20082;-69
2023/01/23 06:46:59;;;;;;;36.80;16.05;;;;;;;;;;5047900;28;20097;-69
2023/01/23 06:49:24;;;;;;;35.33;15.30;;;;;;;;;;5051152;28;20233;-68
2023/01/23 06:51:50;;;;;;;36.53;15.50;;;;;;;;;;5049729;28;20378;-68
2023/01/23 06:54:15;;;;;;;37.38;15.98;;;;;;;;;;5039348;28;20029;-69
2023/01/23 06:56:40;;;;;;;33.60;14.40;;;;;;;;;;5040073;28;20017;-69
2023/01/23 06:59:05;;;;;;;32.88;14.38;;;;;;;;;;5042932;28;20485;-69
2023/01/23 07:01:30;;;;;;;35.85;13.48;;;;;;;;;;5042690;28;20100;-69
2023/01/23 07:03:56;;;;;;;33.38;15.13;;;;;;;;;;5046710;28;20037;-69
2023/01/23 07:06:21;;;;;;;29.65;13.35;;;;;;;;;;5047116;28;20417;-69
2023/01/23 07:08:48;;;;;;;32.83;13.63;;;;;;;;;;5048142;28;20068;-69
2023/01/23 07:11:14;;;;;;;32.83;14.98;;;;;;;;;;5050627;28;20021;-69
2023/01/23 07:13:39;;;;;;;27.80;13.27;;;;;;;;;;5050166;28;20017;-69
2023/01/23 07:16:04;;;;;;;30.00;13.10;;;;;;;;;;5050322;28;20017;-69
2023/01/23 07:18:31;;;;;;;31.25;14.68;;;;;;;;;;5043785;28;20021;-69
2023/01/23 07:20:56;;;;;;;31.17;14.07;;;;;;;;;;5050344;28;20103;-69
2023/01/23 07:23:22;;;;;;;31.40;13.88;;;;;;;;;;5046875;28;20560;-69
2023/01/23 07:25:47;;;;;;;35.10;14.38;;;;;;;;;;5047577;28;20100;-69
2023/01/23 07:28:12;;;;;;;30.30;15.52;;;;;;;;;;5046862;28;20024;-69
2023/01/23 07:30:38;;;;;;;30.63;13.98;;;;;;;;;;5045541;28;20096;-69
2023/01/23 07:33:03;;;;;;;32.75;14.73;;;;;;;;;;5040935;28;20025;-69
2023/01/23 07:35:29;;;;;;;30.05;14.02;;;;;;;;;;5048457;28;20036;-69
2023/01/23 07:37:54;;;;;;;28.50;14.52;;;;;;;;;;5043262;28;20063;-69
2023/01/23 07:40:19;;;;;;;31.35;14.70;;;;;;;;;;5046528;28;20032;-69
2023/01/23 07:42:45;;;;;;;28.33;12.98;;;;;;;;;;5045768;28;20870;-69
2023/01/23 07:45:11;;;;;;;35.35;16.33;;;;;;;;;;5046931;28;20013;-69
2023/01/23 07:47:38;;;;;;;36.15;16.50;;;;;;;;;;5043338;28;20112;-69
2023/01/23 07:50:03;;;;;;;34.35;15.38;;;;;;;;;;5047899;28;20462;-69
2023/01/23 07:52:29;;;;;;;34.30;15.55;;;;;;;;;;5044395;28;20025;-69
2023/01/23 07:54:54;;;;;;;35.15;16.23;;;;;;;;;;5045646;28;20052;-69
2023/01/23 07:57:19;;;;;;;36.30;15.47;;;;;;;;;;5044655;28;20494;-69
2023/01/23 07:59:46;;;;;;;29.87;14.00;;;;;;;;;;5046510;28;20276;-69
2023/01/23 08:02:11;;;;;;;38.75;16.48;;;;;;;;;;5045867;28;20322;-69
2023/01/23 08:04:36;;;;;;;35.77;14.97;;;;;;;;;;5044505;28;20060;-69
2023/01/23 08:07:01;;;;;;;38.13;16.45;;;;;;;;;;5041373;28;20267;-69
2023/01/23 08:09:27;;;;;;;33.40;15.65;;;;;;;;;;5047486;28;20013;-69
2023/01/23 08:11:52;;;;;;;39.47;19.17;;;;;;;;;;5048253;28;20025;-69
2023/01/23 08:14:18;;;;;;;38.28;17.10;;;;;;;;;;5047979;28;20283;-69
2023/01/23 08:16:43;;;;;;;48.92;18.15;;;;;;;;;;5047547;28;20103;-69
2023/01/23 08:19:08;;;;;;;48.35;18.30;;;;;;;;;;5044120;28;20025;-69
2023/01/23 08:21:33;;;;;;;40.45;18.38;;;;;;;;;;5046636;28;20020;-69
2023/01/23 08:24:03;;;;;;;43.78;18.27;;;;;;;;;;5044692;28;20522;-69
2023/01/23 08:26:28;;;;;;;40.40;18.27;;;;;;;;;;5044696;28;20052;-69
2023/01/23 08:28:53;;;;;;;47.15;20.17;;;;;;;;;;5042813;28;20539;-69
2023/01/23 08:31:19;;;;;;;45.90;18.17;;;;;;;;;;5045804;28;20025;-69
2023/01/23 08:33:44;;;;;;;43.00;18.37;;;;;;;;;;5047095;28;20290;-69
2023/01/23 08:36:11;;;;;;;44.90;19.20;;;;;;;;;;5045333;28;20380;-68
2023/01/23 08:38:36;;;;;;;41.75;18.80;;;;;;;;;;5045229;28;20028;-68
2023/01/23 08:41:02;;;;;;;41.92;18.75;;;;;;;;;;5046060;28;20025;-68
2023/01/23 08:43:28;;;;;;;40.45;18.33;;;;;;;;;;5047126;28;20564;-68
2023/01/23 08:45:54;;;;;;;46.17;19.05;;;;;;;;;;5047633;28;20547;-68
2023/01/23 08:48:21;;;;;;;39.83;17.35;;;;;;;;;;5047335;28;20032;-68
2023/01/23 08:50:46;;;;;;;40.50;17.20;;;;;;;;;;5048642;28;20024;-68
2023/01/23 08:53:12;;;;;;;44.70;18.75;;;;;;;;;;5047536;28;20021;-68
2023/01/23 08:55:37;;;;;;;41.80;17.80;;;;;;;;;;5044252;28;20025;-68
2023/01/23 08:58:03;;;;;;;48.47;20.88;;;;;;;;;;5040543;28;20029;-68
2023/01/23 09:00:29;;;;;;;40.97;19.15;;;;;;;;;;5047045;28;20067;-68
2023/01/23 09:02:54;;;;;;;44.17;18.60;;;;;;;;;;5046639;28;20032;-68
2023/01/23 09:05:19;;;;;;;42.95;19.00;;;;;;;;;;5044343;28;20448;-68
2023/01/23 09:07:45;;;;;;;40.87;19.20;;;;;;;;;;5041626;28;20108;-68
2023/01/23 09:10:11;;;;;;;44.22;19.48;;;;;;;;;;5044217;28;20772;-68
2023/01/23 09:12:37;;;;;;;44.85;16.88;;;;;;;;;;5043836;28;20036;-68
2023/01/23 09:15:02;;;;;;;44.70;19.85;;;;;;;;;;5043515;28;20027;-68
2023/01/23 09:17:27;;;;;;;42.63;18.48;;;;;;;;;;5045307;28;20398;-68
2023/01/23 09:19:52;;;;;;;41.33;17.27;;;;;;;;;;5043825;28;20060;-68
2023/01/23 09:22:18;;;;;;;41.13;17.30;;;;;;;;;;5045239;28;20337;-68
2023/01/23 09:24:43;;;;;;;41.42;17.13;;;;;;;;;;5041419;28;20268;-68
2023/01/23 09:27:08;;;;;;;40.93;17.13;;;;;;;;;;5047330;28;20013;-68
2023/01/23 09:29:34;;;;;;;43.05;19.23;;;;;;;;;;5044397;28;20815;-68
2023/01/23 09:31:59;;;;;;;42.05;18.52;;;;;;;;;;5028181;28;20543;-68
2023/01/23 09:34:24;;;;;;;41.67;17.98;;;;;;;;;;5044726;28;20013;-68
2023/01/23 09:36:49;;;;;;;40.80;18.02;;;;;;;;;;5044525;28;21685;-68
2023/01/23 09:39:14;;;;;;;44.23;18.97;;;;;;;;;;5046215;28;20108;-68
2023/01/23 09:41:42;;;;;;;41.17;16.80;;;;;;;;;;5041074;28;20277;-68
2023/01/23 09:44:19;;;;;;;41.28;19.05;;;;;;;;;;5046262;28;20017;-68
2023/01/23 09:46:49;;;;;;;35.72;15.15;;;;;;;;;;5041659;28;20358;-68
2023/01/23 09:49:27;;;;;;;39.40;17.10;;;;;;;;;;5046967;28;20473;-68
2023/01/23 09:51:52;;;;;;;40.85;16.60;;;;;;;;;;5038296;28;20025;-68
2023/01/23 09:54:31;;;;;;;47.85;16.58;;;;;;;;;;5047529;28;20025;-68
2023/01/23 09:56:59;;;;;;;37.47;16.80;;;;;;;;;;5044572;28;20349;-68
2023/01/23 09:59:24;;;;;;;39.03;15.65;;;;;;;;;;5048810;28;20059;-68
2023/01/23 10:01:49;;;;;;;32.85;16.58;;;;;;;;;;5046903;28;20048;-68
2023/01/23 10:04:16;;;;;;;36.60;17.17;;;;;;;;;;5050319;28;20287;-68
2023/01/23 10:07:06;;;;;;;34.28;14.98;;;;;;;;;;5050643;28;20029;-68
2023/01/23 10:09:31;;;;;;;32.05;14.70;;;;;;;;;;5050684;28;20052;-68
2023/01/23 10:11:57;;;;;;;34.45;15.05;;;;;;;;;;5045650;28;20053;-68
2023/01/23 10:14:41;;;;;;;37.83;16.65;;;;;;;;;;5051298;28;20333;-68
2023/01/23 10:17:13;;;;;;;32.08;14.45;;;;;;;;;;5044541;28;20021;-68
2023/01/23 10:19:56;;;;;;;38.42;16.40;;;;;;;;;;5048214;28;20111;-68
2023/01/23 10:22:43;;;;;;;34.50;15.57;;;;;;;;;;5043110;28;20482;-68
2023/01/23 10:25:19;;;;;;;34.13;15.60;;;;;;;;;;5046428;28;20024;-68
2023/01/23 10:27:46;;;;;;;35.53;14.57;;;;;;;;;;5049542;28;20024;-68
2023/01/23 10:30:20;;;;;;;30.58;14.82;;;;;;;;;;5047140;28;20485;-68
2023/01/23 10:32:51;;;;;;;34.78;14.55;;;;;;;;;;5047104;28;20043;-69
2023/01/23 10:35:18;;;;;;;30.95;14.77;;;;;;;;;;5047236;28;20043;-69
2023/01/23 10:37:45;;;;;;;36.53;16.33;;;;;;;;;;5047574;28;20076;-68
2023/01/23 10:40:13;;;;;;;38.47;16.33;;;;;;;;;;5049194;28;20517;-69
2023/01/23 10:42:38;;;;;;;34.88;14.73;;;;;;;;;;5045889;28;20025;-69
2023/01/23 10:45:04;;;;;;;35.45;14.63;;;;;;;;;;5049150;28;20020;-69
2023/01/23 10:47:34;;;;;;;30.17;14.10;;;;;;;;;;5048236;28;20025;-68
2023/01/23 10:49:59;;;;;;;32.20;14.98;;;;;;;;;;5050288;28;20021;-68
2023/01/23 10:52:28;;;;;;;31.85;13.45;;;;;;;;;;5050499;28;20021;-69
2023/01/23 10:54:53;;;;;;;33.65;14.30;;;;;;;;;;5048774;28;20016;-69
2023/01/23 10:57:25;;;;;;;35.90;15.48;;;;;;;;;;5048806;28;20029;-69
2023/01/23 10:59:55;;;;;;;33.55;15.15;;;;;;;;;;5047284;28;20104;-69
2023/01/23 11:02:25;;;;;;;30.10;14.15;;;;;;;;;;5048238;28;20116;-68
2023/01/23 11:04:50;;;;;;;29.60;13.75;;;;;;;;;;5046945;28;20071;-69
2023/01/23 11:07:17;;;;;;;30.58;14.63;;;;;;;;;;5048650;28;20013;-69
2023/01/23 11:09:46;;;;;;;25.50;12.20;;;;;;;;;;5046230;28;20021;-69
2023/01/23 11:12:14;;;;;;;29.23;13.45;;;;;;;;;;5048804;28;20013;-69
2023/01/23 11:14:39;;;;;;;29.15;13.10;;;;;;;;;;5048120;28;20017;-69
2023/01/23 11:17:31;;;;;;;26.60;12.90;;;;;;;;;;5032027;28;20112;-69
2023/01/23 11:19:58;;;;;;;28.67;13.15;;;;;;;;;;5045265;28;20021;-69
2023/01/23 11:22:29;;;;;;;24.88;12.60;;;;;;;;;;5049027;28;20136;-69
2023/01/23 11:24:55;;;;;;;23.38;12.30;;;;;;;;;;5042403;28;20075;-68
2023/01/23 11:27:26;;;;;;;20.98;10.75;;;;;;;;;;5047077;28;20017;-68
2023/01/23 11:29:59;;;;;;;23.58;11.48;;;;;;;;;;5047083;28;20024;-68
2023/01/23 11:32:27;;;;;;;21.15;11.05;;;;;;;;;;5049303;28;20478;-68
2023/01/23 11:34:59;;;;;;;29.40;11.80;;;;;;;;;;5043732;28;20043;-68
2023/01/23 11:37:31;;;;;;;20.30;10.40;;;;;;;;;;5046600;28;20033;-68
2023/01/23 11:39:58;;;;;;;25.10;11.07;;;;;;;;;;5044183;28;20393;-68
2023/01/23 11:42:25;;;;;;;18.77;9.73;;;;;;;;;;5046417;28;20381;-69
2023/01/23 11:44:51;;;;;;;24.85;11.02;;;;;;;;;;5046781;28;20017;-69
2023/01/23 11:47:30;;;;;;;21.77;10.10;;;;;;;;;;5044095;28;20017;-69
2023/01/23 11:49:55;;;;;;;19.33;9.85;;;;;;;;;;5048180;28;20029;-68
2023/01/23 11:52:28;;;;;;;21.48;10.40;;;;;;;;;;5045796;28;20028;-68
2023/01/23 11:55:02;;;;;;;19.83;10.10;;;;;;;;;;5049536;28;20366;-68
2023/01/23 11:57:53;;;;;;;22.20;11.20;;;;;;;;;;5044802;28;20563;-68
2023/01/23 12:00:37;;;;;;;19.35;9.63;;;;;;;;;;5048060;28;20482;-68
2023/01/23 12:03:13;;;;;;;17.92;8.15;;;;;;;;;;5048457;28;20405;-68
2023/01/23 12:05:48;;;;;;;19.92;10.35;;;;;;;;;;5046229;28;20017;-68
2023/01/23 12:08:32;;;;;;;16.75;9.18;;;;;;;;;;5045923;28;20029;-68
2023/01/23 12:11:15;;;;;;;17.73;8.25;;;;;;;;;;5047779;28;20470;-68
2023/01/23 12:13:52;;;;;;;15.10;7.80;;;;;;;;;;5049042;28;20025;-68
2023/01/23 12:16:27;;;;;;;13.43;7.45;;;;;;;;;;5042872;28;20477;-68
2023/01/23 12:19:07;;;;;;;14.18;6.90;;;;;;;;;;5047042;28;20392;-68
2023/01/23 12:21:37;;;;;;;12.43;6.43;;;;;;;;;;5049153;28;20567;-68
2023/01/23 12:24:11;;;;;;;16.38;6.40;;;;;;;;;;5042265;28;20056;-68
2023/01/23 12:26:39;;;;;;;14.18;7.00;;;;;;;;;;5045500;28;20049;-68
2023/01/23 12:29:12;;;;;;;13.10;6.72;;;;;;;;;;5046334;28;20017;-68
2023/01/23 12:31:40;;;;;;;12.43;6.20;;;;;;;;;;5047436;28;20017;-68
2023/01/23 12:34:05;;;;;;;13.20;7.35;;;;;;;;;;5042699;28;20024;-68
2023/01/23 12:36:50;;;;;;;11.38;6.28;;;;;;;;;;5042019;28;20496;-68
2023/01/23 12:39:15;;;;;;;8.45;4.65;;;;;;;;;;5042976;28;20048;-68
2023/01/23 12:41:42;;;;;;;11.27;5.70;;;;;;;;;;5046949;28;20382;-69
2023/01/23 12:44:10;;;;;;;8.73;4.60;;;;;;;;;;5040716;28;20288;-68
2023/01/23 12:46:39;;;;;;;9.23;5.47;;;;;;;;;;5044737;28;20025;-68
2023/01/23 12:49:17;;;;;;;11.25;5.00;;;;;;;;;;5043505;28;20481;-68
2023/01/23 12:51:46;;;;;;;10.25;6.05;;;;;;;;;;5042674;28;20477;-68
2023/01/23 12:54:14;;;;;;;8.73;5.00;;;;;;;;;;5044942;28;20052;-68
2023/01/23 12:56:40;;;;;;;10.82;4.68;;;;;;;;;;5042139;28;20025;-68
2023/01/23 12:59:14;;;;;;;9.02;4.70;;;;;;;;;;5039639;28;20426;-68
2023/01/23 13:01:54;;;;;;;10.63;5.63;;;;;;;;;;5027423;28;20552;-70
2023/01/23 13:04:31;;;;;;;8.63;4.75;;;;;;;;;;5043371;28;20025;-68
2023/01/23 13:07:22;;;;;;;8.73;4.93;;;;;;;;;;5045663;28;20036;-68
2023/01/23 13:10:03;;;;;;;7.63;4.25;;;;;;;;;;5041692;28;20030;-68
2023/01/23 13:12:29;;;;;;;5.75;4.10;;;;;;;;;;5041666;28;20033;-69
2023/01/23 13:15:29;;;;;;;7.40;4.75;;;;;;;;;;5046802;28;20359;-69
2023/01/23 13:17:59;;;;;;;6.63;3.58;;;;;;;;;;5004891;28;20064;-69
2023/01/23 13:23:26;;;;;;;7.53;4.38;;;;;;;;;;5044515;28;20389;-69
2023/01/23 13:26:10;;;;;;;9.82;5.40;;;;;;;;;;5042047;28;20017;-69
2023/01/23 13:28:41;;;;;;;9.35;5.70;;;;;;;;;;5045204;28;20025;-69
2023/01/23 13:31:22;;;;;;;9.93;5.43;;;;;;;;;;5046612;28;20045;-69
2023/01/23 13:33:48;;;;;;;11.27;5.45;;;;;;;;;;5043250;28;20457;-69
2023/01/23 13:36:40;;;;;;;11.55;5.95;;;;;;;;;;5050566;28;20029;-69
2023/01/23 13:39:18;;;;;;;11.15;5.78;;;;;;;;;;5045413;28;20033;-68
2023/01/23 13:41:44;;;;;;;10.10;6.22;;;;;;;;;;5049269;28;20474;-68
2023/01/23 13:44:17;;;;;;;9.23;5.85;;;;;;;;;;5051162;28;20029;-68
2023/01/23 13:46:43;;;;;;;11.20;6.28;;;;;;;;;;5047773;28;20024;-68
2023/01/23 13:51:59;;;;;;;13.02;7.28;;;;;;;;;;5050434;28;20067;-68
2023/01/23 13:57:09;;;;;;;12.65;6.93;;;;;;;;;;5049690;28;20056;-68
2023/01/23 13:59:37;;;;;;;15.90;8.23;;;;;;;;;;5036442;28;20469;-68
2023/01/23 14:05:16;;;;;;;18.27;8.60;;;;;;;;;;5043853;28;20067;-68
2023/01/23 14:07:42;;;;;;;18.00;9.35;;;;;;;;;;5047099;28;20079;-68
2023/01/23 14:10:14;;;;;;;17.90;9.10;;;;;;;;;;5049549;28;20032;-68
2023/01/23 14:12:40;;;;;;;16.55;8.85;;;;;;;;;;5045972;28;20020;-68
2023/01/23 14:18:16;;;;;;;21.67;9.68;;;;;;;;;;5044442;28;20056;-69
2023/01/23 14:20:42;;;;;;;21.58;10.23;;;;;;;;;;5043862;28;20115;-69
2023/01/23 14:23:26;;;;;;;20.02;10.40;;;;;;;;;;5049705;28;20729;-69
2023/01/23 14:25:51;;;;;;;18.88;9.25;;;;;;;;;;5029703;28;20017;-69
2023/01/23 14:28:17;;;;;;;24.25;11.23;;;;;;;;;;5048902;28;20035;-69
2023/01/23 14:30:56;;;;;;;18.75;10.85;;;;;;;;;;5048801;28;20025;-69
2023/01/23 14:33:21;;;;;;;22.08;11.20;;;;;;;;;;5050416;28;20122;-68
2023/01/23 14:35:47;;;;;;;20.88;10.63;;;;;;;;;;5046645;28;20080;-69
2023/01/23 14:38:17;;;;;;;21.30;10.57;;;;;;;;;;5048222;28;20032;-68
2023/01/23 14:40:42;;;;;;;22.33;12.20;;;;;;;;;;5048010;28;20025;-68
2023/01/23 14:43:08;;;;;;;21.13;11.45;;;;;;;;;;5046403;28;20134;-68